createdAt,value
2022-09-29T00:00:13.942Z,18.20
2022-09-29T00:05:39.795Z,21.20
2022-09-29T00:10:46.010Z,17.10
2022-09-29T00:16:00.336Z,17.90
2022-09-29T00:21:08.038Z,18.60
2022-09-29T00:26:15.767Z,15.80
2022-09-29T00:31:22.125Z,14.40
2022-09-29T00:36:31.012Z,12.90
2022-09-29T00:41:39.025Z,13.30
2022-09-29T00:46:49.790Z,14.50
2022-09-29T00:52:00.484Z,11.40
2022-09-29T00:57:09.368Z,12.40
2022-09-29T01:02:16.866Z,11.50
2022-09-29T01:07:24.477Z,12.10
2022-09-29T01:12:30.643Z,10.30
2022-09-29T01:17:37.081Z,17.10
2022-09-29T01:23:15.649Z,41.00
2022-09-29T01:28:48.775Z,46.90
2022-09-29T01:34:06.087Z,83.80
2022-09-29T01:39:19.647Z,29.90
2022-09-29T01:44:31.347Z,28.00
2022-09-29T01:49:42.195Z,11.80
2022-09-29T01:54:54.306Z,15.10
2022-09-29T02:00:08.946Z,17.40
2022-09-29T02:05:24.748Z,12.40
2022-09-29T02:10:35.627Z,10.70
2022-09-29T02:15:46.515Z,10.90
2022-09-29T02:20:52.366Z,8.90
2022-09-29T02:26:00.724Z,9.00
2022-09-29T02:31:07.789Z,10.60
2022-09-29T02:36:27.630Z,10.60
2022-09-29T02:41:47.500Z,11.90
2022-09-29T02:47:19.052Z,11.50
2022-09-29T02:52:34.945Z,11.30
2022-09-29T02:57:49.089Z,13.00
2022-09-29T03:02:54.899Z,10.90
2022-09-29T03:08:00.800Z,10.20
2022-09-29T03:13:06.581Z,11.00
2022-09-29T03:18:12.340Z,15.80
2022-09-29T03:23:18.578Z,9.00
2022-09-29T03:28:24.363Z,9.40
2022-09-29T03:33:30.200Z,13.90
2022-09-29T03:38:36.433Z,12.10
2022-09-29T03:43:42.486Z,14.80
2022-09-29T03:48:48.236Z,11.10
2022-09-29T03:53:54.080Z,17.30
2022-09-29T03:59:00.080Z,9.60
2022-09-29T04:04:09.389Z,11.70
2022-09-29T04:09:15.295Z,14.80
2022-09-29T04:14:21.218Z,12.80
2022-09-29T04:19:27.288Z,11.40
2022-09-29T04:24:33.076Z,9.30
2022-09-29T04:29:39.066Z,12.60
2022-09-29T04:34:44.888Z,12.40
2022-09-29T04:39:52.884Z,20.40
2022-09-29T04:44:58.652Z,16.40
2022-09-29T04:50:05.725Z,12.00
2022-09-29T04:55:13.068Z,14.30
2022-09-29T05:00:19.305Z,11.30
2022-09-29T05:05:25.162Z,11.60
2022-09-29T05:10:31.267Z,12.20
2022-09-29T05:15:38.120Z,13.60
2022-09-29T05:21:00.446Z,11.50
2022-09-29T05:26:13.205Z,13.70
2022-09-29T05:31:19.348Z,15.30
2022-09-29T05:36:26.662Z,20.10
2022-09-29T05:41:33.269Z,17.90
2022-09-29T05:46:39.666Z,12.80
2022-09-29T05:51:45.819Z,14.50
2022-09-29T05:56:51.606Z,14.40
2022-09-29T06:01:57.429Z,13.80
2022-09-29T06:07:04.723Z,14.80
2022-09-29T06:12:11.014Z,15.10
2022-09-29T06:17:16.935Z,14.30
2022-09-29T06:22:23.305Z,16.70
2022-09-29T06:27:29.240Z,12.20
2022-09-29T06:32:36.061Z,16.80
2022-09-29T06:37:46.617Z,15.60
2022-09-29T06:42:52.424Z,14.10
2022-09-29T06:48:02.384Z,11.60
2022-09-29T06:53:08.384Z,14.10
2022-09-29T06:58:14.047Z,12.80
2022-09-29T07:03:19.918Z,16.70
2022-09-29T07:08:26.071Z,11.30
2022-09-29T07:13:32.250Z,12.30
2022-09-29T07:18:38.947Z,14.80
2022-09-29T07:23:46.152Z,11.10
2022-09-29T07:28:54.357Z,11.50
2022-09-29T07:34:00.695Z,11.90
2022-09-29T07:39:06.822Z,11.90
2022-09-29T07:44:12.890Z,9.90
2022-09-29T07:49:18.853Z,9.30
2022-09-29T07:54:29.563Z,9.30
2022-09-29T07:59:35.762Z,9.60
2022-09-29T08:04:42.492Z,7.80
2022-09-29T08:09:49.107Z,7.10
2022-09-29T08:14:54.938Z,7.90
2022-09-29T08:20:00.975Z,7.80
2022-09-29T08:25:07.443Z,7.80
2022-09-29T08:30:14.735Z,7.90
2022-09-29T08:35:21.295Z,8.10
2022-09-29T08:40:29.863Z,7.20
2022-09-29T08:45:51.100Z,7.10
2022-09-29T08:51:04.858Z,8.60
2022-09-29T08:56:15.812Z,10.60
2022-09-29T09:01:30.731Z,9.40
2022-09-29T09:06:50.680Z,8.30
2022-09-29T09:12:13.145Z,7.50
2022-09-29T09:17:28.474Z,8.00
2022-09-29T09:22:48.269Z,7.70
2022-09-29T09:28:04.171Z,7.90
2022-09-29T09:33:29.983Z,8.40
2022-09-29T09:38:46.451Z,7.60
2022-09-29T09:43:56.745Z,7.30
2022-09-29T09:49:14.396Z,36.30
2022-09-29T09:54:29.383Z,9.00
2022-09-29T09:59:47.243Z,8.10
2022-09-29T10:04:54.419Z,7.70
2022-09-29T10:10:13.242Z,8.50
2022-09-29T10:15:26.017Z,9.20
2022-09-29T10:20:35.662Z,7.20
2022-09-29T10:25:50.930Z,8.70
2022-09-29T10:30:57.926Z,8.00
2022-09-29T10:36:12.205Z,7.20
2022-09-29T10:41:19.874Z,7.10
2022-09-29T10:46:50.659Z,6.60
2022-09-29T10:52:00.748Z,8.70
2022-09-29T10:57:16.120Z,11.60
2022-09-29T11:02:30.392Z,14.40
2022-09-29T11:07:43.623Z,9.80
2022-09-29T11:12:50.094Z,8.30
2022-09-29T11:17:56.834Z,7.30
2022-09-29T11:23:18.054Z,8.20
2022-09-29T11:33:47.013Z,7.80
2022-09-29T11:39:10.915Z,8.10
2022-09-29T11:44:37.910Z,9.30
2022-09-29T11:50:01.385Z,7.60
2022-09-29T11:55:27.954Z,7.50
2022-09-29T12:00:50.063Z,8.00
2022-09-29T12:06:29.199Z,7.40
2022-09-29T12:12:11.873Z,13.00
2022-09-29T12:17:18.967Z,7.40
2022-09-29T12:22:25.138Z,8.70
2022-09-29T12:27:36.526Z,12.70
2022-09-29T12:32:48.397Z,9.50
2022-09-29T12:38:02.405Z,7.40
2022-09-29T12:43:15.751Z,8.10
2022-09-29T12:48:40.642Z,8.70
2022-09-29T12:54:03.210Z,9.80
2022-09-29T12:59:16.666Z,9.70
2022-09-29T13:04:54.558Z,7.90
2022-09-29T13:10:23.522Z,8.30
2022-09-29T13:15:45.881Z,6.90
2022-09-29T13:21:05.235Z,7.20
2022-09-29T13:26:24.590Z,6.50
2022-09-29T13:31:35.941Z,6.50
2022-09-29T13:36:45.521Z,7.90
2022-09-29T13:41:57.386Z,8.70
2022-09-29T13:47:32.071Z,7.70
2022-09-29T13:52:48.674Z,7.80
2022-09-29T13:57:54.662Z,9.50
2022-09-29T14:03:22.561Z,7.40
2022-09-29T14:08:36.823Z,7.30
2022-09-29T14:13:53.069Z,7.50
2022-09-29T14:19:06.196Z,7.50
2022-09-29T14:24:45.810Z,7.00
2022-09-29T14:29:55.815Z,8.40
2022-09-29T14:35:03.829Z,8.50
2022-09-29T14:40:28.874Z,8.70
2022-09-29T14:46:06.671Z,10.60
2022-09-29T14:51:37.422Z,8.50
2022-09-29T14:56:57.389Z,10.30
2022-09-29T15:02:28.076Z,9.80
2022-09-29T15:07:41.963Z,9.80
2022-09-29T15:12:50.605Z,8.80
2022-09-29T15:18:02.795Z,10.30
2022-09-29T15:23:29.483Z,9.60
2022-09-29T15:28:37.778Z,10.20
2022-09-29T15:33:45.615Z,8.40
2022-09-29T15:38:56.719Z,8.80
2022-09-29T15:44:12.049Z,9.50
2022-09-29T15:49:21.341Z,11.40
2022-09-29T15:54:29.844Z,11.80
2022-09-29T15:59:51.413Z,9.50
2022-09-29T16:04:59.832Z,10.40
2022-09-29T16:10:13.386Z,13.90
2022-09-29T16:15:28.988Z,8.60
2022-09-29T16:20:36.604Z,53.70
2022-09-29T16:25:42.411Z,77.40
2022-09-29T16:31:02.984Z,69.40
2022-09-29T16:36:13.604Z,35.00
2022-09-29T16:41:27.847Z,28.10
2022-09-29T16:46:34.584Z,41.40
2022-09-29T16:51:45.227Z,30.90
2022-09-29T16:57:17.228Z,29.20
2022-09-29T17:02:24.182Z,54.60
2022-09-29T17:07:30.973Z,82.60
2022-09-29T17:12:36.925Z,71.90
2022-09-29T17:17:44.498Z,74.80
2022-09-29T17:22:51.594Z,68.30
2022-09-29T17:28:12.929Z,86.10
2022-09-29T17:33:20.258Z,94.30
2022-09-29T17:38:27.251Z,68.60
2022-09-29T17:43:33.557Z,80.20
2022-09-29T17:48:39.631Z,93.80
2022-09-29T17:53:45.518Z,92.60
2022-09-29T17:58:51.538Z,83.80
2022-09-29T18:03:57.388Z,206.40
2022-09-29T18:09:12.440Z,133.90
2022-09-29T18:14:18.313Z,137.50
2022-09-29T18:19:25.460Z,133.20
2022-09-29T18:24:32.142Z,120.90
2022-09-29T18:29:37.973Z,121.80
2022-09-29T18:34:43.882Z,106.80
2022-09-29T18:39:49.714Z,116.70
2022-09-29T18:44:55.357Z,111.50
2022-09-29T18:50:01.165Z,111.30
2022-09-29T18:55:08.609Z,98.80
2022-09-29T19:00:16.215Z,100.70
2022-09-29T19:05:24.117Z,119.70
2022-09-29T19:10:32.581Z,103.90
2022-09-29T19:15:40.615Z,107.20
2022-09-29T19:20:46.485Z,103.90
2022-09-29T19:25:54.054Z,97.80
2022-09-29T19:31:08.284Z,109.50
2022-09-29T19:36:17.415Z,120.60
2022-09-29T19:41:24.700Z,139.10
2022-09-29T19:46:30.915Z,144.20
2022-09-29T19:51:57.508Z,119.20
2022-09-29T19:57:07.929Z,106.00
2022-09-29T20:02:15.105Z,106.60
2022-09-29T20:07:20.849Z,122.10
2022-09-29T20:12:26.638Z,118.90
2022-09-29T20:17:32.807Z,104.30
2022-09-29T20:22:39.184Z,96.90
2022-09-29T20:27:45.075Z,111.60
2022-09-29T20:32:50.828Z,109.90
2022-09-29T20:37:56.543Z,82.80
2022-09-29T20:43:02.275Z,87.20
2022-09-29T20:48:08.453Z,96.50
2022-09-29T20:53:15.088Z,100.90
2022-09-29T20:58:20.850Z,95.30
2022-09-29T21:03:26.642Z,88.60
2022-09-29T21:08:33.017Z,78.50
2022-09-29T21:13:39.541Z,86.20
2022-09-29T21:18:45.476Z,93.80
2022-09-29T21:23:51.278Z,94.90
2022-09-29T21:28:59.503Z,87.90
2022-09-29T21:34:07.226Z,88.60
2022-09-29T21:39:14.542Z,104.20
2022-09-29T21:44:24.139Z,116.70
2022-09-29T21:49:30.432Z,109.70
2022-09-29T21:54:38.626Z,110.90
2022-09-29T21:59:44.621Z,105.60
2022-09-29T22:04:50.362Z,114.60
2022-09-29T22:09:56.091Z,114.50
2022-09-29T22:15:01.732Z,114.50
2022-09-29T22:20:08.467Z,110.40
2022-09-29T22:25:14.342Z,121.20
2022-09-29T22:30:20.908Z,139.40
2022-09-29T22:35:27.140Z,117.00
2022-09-29T22:40:33.038Z,126.20
2022-09-29T22:45:38.872Z,115.70
2022-09-29T22:50:47.574Z,125.50
2022-09-29T22:55:53.512Z,108.10
2022-09-29T23:01:07.482Z,100.10
2022-09-29T23:06:14.551Z,102.30
2022-09-29T23:11:20.957Z,111.20
2022-09-29T23:16:26.924Z,94.70
2022-09-29T23:21:33.195Z,91.90
2022-09-29T23:26:39.012Z,106.10
2022-09-29T23:31:49.466Z,110.60
2022-09-29T23:36:55.623Z,105.00
2022-09-29T23:42:01.702Z,91.60
2022-09-29T23:47:08.370Z,105.60
2022-09-29T23:52:14.709Z,103.10
2022-09-29T23:57:21.153Z,84.40
